Time;durP1;ratioP1;P1;durP2;ratioP2;P2;SDS_P1;SDS_P2;PMS_P1;PMS_P2;Temp;Humidity;BMP_temperature;BMP_pressure;BME280_temperature;BME280_humidity;BME280_pressure;Samples;Min_cycle;Max_cycle;Signal;HPM_P1;HPM_P2
2023/09/24 00:00:32;;;;;;;6.85;2.30;;;;;;;;;;5072867;28;20020;-94
2023/09/24 00:02:58;;;;;;;5.55;2.50;;;;;;;;;;5073515;28;20072;-93
2023/09/24 00:05:24;;;;;;;4.50;2.47;;;;;;;;;;5072996;28;20032;-94
2023/09/24 00:07:49;;;;;;;11.80;3.20;;;;;;;;;;5072688;28;20082;-93
2023/09/24 00:10:14;;;;;;;6.22;3.33;;;;;;;;;;5069994;28;20016;-94
2023/09/24 00:12:40;;;;;;;6.30;2.83;;;;;;;;;;5071684;28;20028;-94
2023/09/24 00:15:07;;;;;;;8.57;3.10;;;;;;;;;;5059947;28;20028;-93
2023/09/24 00:17:33;;;;;;;4.97;2.80;;;;;;;;;;5062736;28;20108;-94
2023/09/24 00:19:58;;;;;;;4.15;2.50;;;;;;;;;;5066763;28;20048;-94
2023/09/24 00:22:26;;;;;;;5.95;3.22;;;;;;;;;;5061357;28;20115;-94
2023/09/24 00:24:52;;;;;;;9.77;3.63;;;;;;;;;;5072546;28;20115;-94
2023/09/24 00:27:17;;;;;;;7.25;3.13;;;;;;;;;;5072957;28;20044;-94
2023/09/24 00:29:42;;;;;;;5.72;3.20;;;;;;;;;;5072784;28;20020;-94
2023/09/24 00:32:08;;;;;;;5.15;3.00;;;;;;;;;;5074448;28;20027;-93
2023/09/24 00:34:34;;;;;;;5.00;3.10;;;;;;;;;;5068009;28;20106;-94
2023/09/24 00:36:59;;;;;;;7.30;3.10;;;;;;;;;;5062962;28;20017;-93
2023/09/24 00:39:25;;;;;;;5.40;3.00;;;;;;;;;;5058641;28;20434;-94
2023/09/24 00:41:50;;;;;;;7.68;3.75;;;;;;;;;;5063606;28;20476;-94
2023/09/24 00:44:16;;;;;;;10.30;3.95;;;;;;;;;;5062803;28;20020;-94
2023/09/24 00:46:44;;;;;;;8.77;3.90;;;;;;;;;;5072856;28;20020;-94
2023/09/24 00:49:09;;;;;;;8.82;3.58;;;;;;;;;;5059383;28;20043;-94
2023/09/24 00:51:35;;;;;;;9.32;3.42;;;;;;;;;;5052009;28;20120;-93
2023/09/24 00:54:00;;;;;;;7.45;3.28;;;;;;;;;;5068247;28;20021;-94
2023/09/24 00:56:28;;;;;;;6.35;3.08;;;;;;;;;;5059328;28;20027;-93
2023/09/24 00:58:57;;;;;;;9.00;3.00;;;;;;;;;;5072101;28;20038;-93
2023/09/24 01:01:24;;;;;;;6.45;2.83;;;;;;;;;;5072444;28;20063;-94
2023/09/24 01:03:52;;;;;;;6.20;3.33;;;;;;;;;;5072194;28;20078;-93
2023/09/24 01:06:18;;;;;;;5.45;2.95;;;;;;;;;;5071059;28;20031;-93
2023/09/24 01:08:43;;;;;;;14.82;3.67;;;;;;;;;;5071636;28;20020;-94
2023/09/24 01:11:08;;;;;;;10.05;3.55;;;;;;;;;;5072108;28;20025;-93
2023/09/24 01:13:44;;;;;;;7.28;2.97;;;;;;;;;;5072274;28;20012;-93
2023/09/24 01:16:10;;;;;;;6.22;3.15;;;;;;;;;;5076106;28;20020;-93
2023/09/24 01:18:37;;;;;;;5.03;2.90;;;;;;;;;;5070641;28;20503;-93
2023/09/24 01:21:09;;;;;;;5.35;3.50;;;;;;;;;;5066501;28;20470;-93
2023/09/24 01:23:38;;;;;;;6.72;2.60;;;;;;;;;;5075452;28;20146;-93
2023/09/24 01:26:03;;;;;;;7.45;3.38;;;;;;;;;;5061808;28;20115;-94
2023/09/24 01:28:30;;;;;;;5.95;3.05;;;;;;;;;;5075825;28;20145;-94
2023/09/24 01:30:55;;;;;;;6.25;3.38;;;;;;;;;;5071275;28;20048;-93
2023/09/24 01:33:21;;;;;;;6.80;3.03;;;;;;;;;;5065848;28;20017;-94
2023/09/24 01:35:47;;;;;;;6.05;3.05;;;;;;;;;;5075730;28;20103;-94
2023/09/24 01:38:13;;;;;;;10.90;2.95;;;;;;;;;;5075332;28;20020;-93
2023/09/24 01:40:38;;;;;;;5.65;2.97;;;;;;;;;;5075728;28;20406;-93
2023/09/24 01:43:10;;;;;;;6.35;3.40;;;;;;;;;;5071130;28;20040;-93
2023/09/24 01:45:38;;;;;;;5.97;3.25;;;;;;;;;;5056004;28;20467;-94
2023/09/24 01:48:04;;;;;;;7.82;3.60;;;;;;;;;;5071013;28;20483;-93
2023/09/24 01:50:32;;;;;;;6.57;2.88;;;;;;;;;;5066256;28;20017;-93
2023/09/24 01:52:58;;;;;;;6.35;2.85;;;;;;;;;;5072854;28;20466;-93
2023/09/24 01:55:27;;;;;;;5.60;2.75;;;;;;;;;;5075227;28;20476;-93
2023/09/24 01:57:53;;;;;;;6.25;2.72;;;;;;;;;;5076100;28;20324;-93
2023/09/24 02:00:23;;;;;;;7.15;2.72;;;;;;;;;;5075104;28;20104;-94
2023/09/24 02:02:50;;;;;;;9.43;2.55;;;;;;;;;;5074902;28;20539;-93
2023/09/24 02:05:15;;;;;;;6.93;3.45;;;;;;;;;;5074673;28;20423;-94
2023/09/24 02:07:40;;;;;;;7.57;2.60;;;;;;;;;;5074046;28;20020;-93
2023/09/24 02:10:06;;;;;;;5.93;2.92;;;;;;;;;;5060151;28;20052;-94
2023/09/24 02:12:38;;;;;;;3.65;2.15;;;;;;;;;;5076107;28;20123;-94
2023/09/24 02:15:17;;;;;;;4.80;2.20;;;;;;;;;;5060722;28;20058;-93
2023/09/24 02:17:44;;;;;;;11.60;2.15;;;;;;;;;;5074842;28;20028;-93
2023/09/24 02:20:56;;;;;;;4.88;2.08;;;;;;;;;;5074557;28;20111;-94
2023/09/24 02:22:59;;;;;;;9.00;2.42;;;;;;;;;;5072091;28;20033;-93
2023/09/24 02:25:44;;;;;;;4.45;2.22;;;;;;;;;;5074621;28;20055;-93
2023/09/24 02:28:13;;;;;;;6.80;2.10;;;;;;;;;;5074329;28;20017;-94
2023/09/24 02:30:42;;;;;;;5.50;2.20;;;;;;;;;;5074476;28;20021;-94
2023/09/24 02:33:07;;;;;;;3.67;2.13;;;;;;;;;;5074907;28;20498;-94
2023/09/24 02:35:32;;;;;;;5.85;2.10;;;;;;;;;;5074525;28;20017;-94
2023/09/24 02:37:58;;;;;;;3.00;1.83;;;;;;;;;;5067869;28;20017;-94
2023/09/24 02:40:26;;;;;;;3.90;2.30;;;;;;;;;;5067171;28;20054;-93
2023/09/24 02:42:56;;;;;;;3.70;2.10;;;;;;;;;;5074462;28;20031;-93
2023/09/24 02:45:24;;;;;;;9.07;2.70;;;;;;;;;;5072839;28;20025;-93
2023/09/24 02:47:49;;;;;;;4.18;2.20;;;;;;;;;;5072665;28;20485;-94
2023/09/24 02:50:15;;;;;;;4.55;2.10;;;;;;;;;;5068511;28;20107;-93
2023/09/24 02:52:44;;;;;;;4.43;2.03;;;;;;;;;;5067949;28;20028;-93
2023/09/24 02:55:13;;;;;;;9.20;2.30;;;;;;;;;;5063583;28;20082;-94
2023/09/24 02:57:42;;;;;;;8.68;2.40;;;;;;;;;;5074007;28;20016;-93
2023/09/24 03:00:15;;;;;;;3.28;1.77;;;;;;;;;;5073659;28;20020;-93
2023/09/24 03:02:40;;;;;;;6.32;1.73;;;;;;;;;;5060105;28;20028;-93
2023/09/24 03:05:08;;;;;;;3.40;2.10;;;;;;;;;;5074266;28;20458;-93
2023/09/24 03:07:33;;;;;;;7.50;2.05;;;;;;;;;;5072703;28;20143;-93
2023/09/24 03:09:58;;;;;;;4.75;2.25;;;;;;;;;;5074164;28;20063;-93
2023/09/24 03:12:24;;;;;;;7.75;2.30;;;;;;;;;;5073593;28;20029;-93
2023/09/24 03:14:49;;;;;;;5.32;2.15;;;;;;;;;;5056928;28;20159;-92
2023/09/24 03:17:14;;;;;;;4.97;2.05;;;;;;;;;;5057831;28;20074;-93
2023/09/24 03:19:43;;;;;;;4.82;1.80;;;;;;;;;;5067805;28;20047;-93
2023/09/24 03:22:08;;;;;;;6.32;2.28;;;;;;;;;;5061030;28;20028;-93
2023/09/24 03:24:33;;;;;;;5.10;1.88;;;;;;;;;;5073593;28;20095;-93
2023/09/24 03:26:58;;;;;;;6.72;1.95;;;;;;;;;;5057233;28;20024;-93
2023/09/24 03:29:24;;;;;;;3.47;1.90;;;;;;;;;;5073512;28;20115;-94
2023/09/24 03:31:52;;;;;;;6.28;2.10;;;;;;;;;;5074461;28;20020;-93
2023/09/24 03:34:17;;;;;;;3.90;1.88;;;;;;;;;;5064894;28;20029;-93
2023/09/24 03:36:43;;;;;;;5.55;1.73;;;;;;;;;;5053838;28;20078;-93
2023/09/24 03:39:09;;;;;;;3.42;1.80;;;;;;;;;;5065738;28;20025;-93
2023/09/24 03:41:34;;;;;;;3.00;1.60;;;;;;;;;;5065510;28;20510;-93
2023/09/24 03:43:59;;;;;;;3.38;1.85;;;;;;;;;;5058858;28;20056;-93
2023/09/24 03:46:25;;;;;;;3.47;1.80;;;;;;;;;;5063046;28;20090;-93
2023/09/24 03:48:50;;;;;;;3.13;1.70;;;;;;;;;;5066857;28;20457;-93
2023/09/24 03:51:15;;;;;;;5.60;1.98;;;;;;;;;;5062190;28;20024;-93
2023/09/24 03:53:41;;;;;;;2.95;1.73;;;;;;;;;;5072885;28;20031;-93
2023/09/24 03:56:07;;;;;;;6.70;2.13;;;;;;;;;;5059032;28;20020;-93
2023/09/24 03:58:33;;;;;;;5.78;2.20;;;;;;;;;;5072761;28;20044;-92
2023/09/24 04:00:58;;;;;;;3.47;1.83;;;;;;;;;;5072808;28;20016;-93
2023/09/24 04:03:23;;;;;;;6.07;2.40;;;;;;;;;;5072822;28;20502;-93
2023/09/24 04:05:49;;;;;;;5.82;2.60;;;;;;;;;;5072536;28;20078;-93
2023/09/24 04:08:14;;;;;;;5.45;2.28;;;;;;;;;;5071491;28;20035;-93
2023/09/24 04:10:40;;;;;;;9.52;2.20;;;;;;;;;;5073921;28;20071;-93
2023/09/24 04:13:05;;;;;;;6.35;2.17;;;;;;;;;;5054670;28;20056;-93
2023/09/24 04:15:32;;;;;;;5.25;1.90;;;;;;;;;;5052412;28;20518;-93
2023/09/24 04:17:59;;;;;;;4.68;2.35;;;;;;;;;;5069604;28;20047;-93
2023/09/24 04:20:29;;;;;;;7.88;2.33;;;;;;;;;;5063081;28;20175;-93
2023/09/24 04:22:54;;;;;;;4.40;1.95;;;;;;;;;;5068089;28;20017;-92
2023/09/24 04:25:21;;;;;;;4.00;2.13;;;;;;;;;;5072271;28;20016;-93
2023/09/24 04:27:48;;;;;;;7.00;2.53;;;;;;;;;;5072222;28;20025;-93
2023/09/24 04:30:15;;;;;;;5.55;2.17;;;;;;;;;;5058273;28;20024;-93
2023/09/24 04:32:47;;;;;;;9.90;2.97;;;;;;;;;;5072218;28;20090;-93
2023/09/24 04:35:18;;;;;;;6.03;2.53;;;;;;;;;;5072051;28;20494;-93
2023/09/24 04:37:43;;;;;;;8.48;2.63;;;;;;;;;;5072210;28;20016;-93
2023/09/24 04:40:14;;;;;;;7.07;2.22;;;;;;;;;;5054326;28;20087;-93
2023/09/24 04:42:41;;;;;;;7.40;2.88;;;;;;;;;;5052236;28;20024;-92
2023/09/24 04:45:07;;;;;;;7.20;2.40;;;;;;;;;;5067618;28;20313;-93
2023/09/24 04:47:36;;;;;;;6.80;2.70;;;;;;;;;;5063517;28;20032;-93
2023/09/24 04:50:02;;;;;;;10.75;2.80;;;;;;;;;;5069569;28;20046;-93
2023/09/24 04:52:27;;;;;;;8.27;2.80;;;;;;;;;;5076468;28;20152;-93
2023/09/24 04:54:52;;;;;;;6.80;2.35;;;;;;;;;;5075628;28;20016;-92
2023/09/24 04:57:18;;;;;;;5.40;2.17;;;;;;;;;;5062203;28;20029;-93
2023/09/24 04:59:44;;;;;;;9.40;2.63;;;;;;;;;;5076699;28;20017;-93
2023/09/24 05:02:09;;;;;;;6.40;2.58;;;;;;;;;;5076405;28;20472;-93
2023/09/24 05:04:35;;;;;;;8.00;3.00;;;;;;;;;;5075870;28;20406;-93
2023/09/24 05:07:03;;;;;;;7.82;2.65;;;;;;;;;;5076134;28;20070;-92
2023/09/24 05:09:30;;;;;;;6.80;2.60;;;;;;;;;;5077412;28;20016;-93
2023/09/24 05:11:55;;;;;;;15.45;2.80;;;;;;;;;;5066622;28;20075;-92
2023/09/24 05:14:23;;;;;;;6.30;2.70;;;;;;;;;;5070647;28;20017;-93
2023/09/24 05:16:50;;;;;;;11.40;2.78;;;;;;;;;;5074783;28;20016;-93
2023/09/24 05:19:16;;;;;;;7.43;2.50;;;;;;;;;;5076871;28;20017;-93
2023/09/24 05:21:42;;;;;;;5.63;2.53;;;;;;;;;;5061420;28;20021;-93
2023/09/24 05:24:08;;;;;;;8.73;3.10;;;;;;;;;;5075100;28;20099;-93
2023/09/24 05:26:33;;;;;;;11.77;3.15;;;;;;;;;;5074721;28;20416;-93
2023/09/24 05:28:59;;;;;;;4.82;2.40;;;;;;;;;;5075463;28;20016;-93
2023/09/24 05:31:24;;;;;;;7.28;2.63;;;;;;;;;;5073296;28;20140;-93
2023/09/24 05:33:50;;;;;;;5.68;2.60;;;;;;;;;;5064060;28;20099;-93
2023/09/24 05:36:15;;;;;;;7.22;2.53;;;;;;;;;;5065500;28;20040;-93
2023/09/24 05:38:40;;;;;;;5.75;2.03;;;;;;;;;;5055491;28;20059;-93
2023/09/24 05:41:06;;;;;;;6.13;2.50;;;;;;;;;;5066344;28;20047;-93
2023/09/24 05:43:31;;;;;;;4.80;1.85;;;;;;;;;;5074447;28;20111;-93
2023/09/24 05:45:57;;;;;;;3.20;1.90;;;;;;;;;;5071891;28;20013;-93
2023/09/24 05:48:22;;;;;;;6.03;2.42;;;;;;;;;;5075486;28;20028;-93
2023/09/24 05:50:47;;;;;;;8.00;2.65;;;;;;;;;;5075108;28;20055;-94
2023/09/24 05:53:13;;;;;;;5.80;2.72;;;;;;;;;;5074897;28;20018;-93
2023/09/24 05:55:39;;;;;;;7.05;2.70;;;;;;;;;;5075243;28;20013;-92
2023/09/24 05:58:05;;;;;;;4.43;2.17;;;;;;;;;;5067446;28;20024;-93
2023/09/24 06:00:31;;;;;;;6.50;2.50;;;;;;;;;;5068261;28;20489;-93
2023/09/24 06:02:57;;;;;;;7.88;2.67;;;;;;;;;;5074558;28;20022;-93
2023/09/24 06:05:22;;;;;;;4.13;1.90;;;;;;;;;;5075029;28;20048;-93
2023/09/24 06:07:48;;;;;;;7.82;2.28;;;;;;;;;;5071913;28;20020;-93
2023/09/24 06:10:15;;;;;;;5.75;1.98;;;;;;;;;;5065049;28;20024;-93
2023/09/24 06:12:41;;;;;;;7.57;2.33;;;;;;;;;;5075302;28;20024;-93
2023/09/24 06:15:07;;;;;;;3.15;1.50;;;;;;;;;;5067221;28;20128;-93
2023/09/24 06:17:33;;;;;;;5.47;2.00;;;;;;;;;;5071252;28;20020;-94
2023/09/24 06:19:58;;;;;;;5.45;2.10;;;;;;;;;;5074911;28;20089;-93
2023/09/24 06:22:24;;;;;;;5.32;2.30;;;;;;;;;;5071194;28;20021;-93
2023/09/24 06:24:52;;;;;;;7.40;1.95;;;;;;;;;;5075578;28;20012;-93
2023/09/24 06:27:19;;;;;;;3.85;1.92;;;;;;;;;;5067266;28;20594;-93
2023/09/24 06:29:46;;;;;;;5.38;2.08;;;;;;;;;;5075055;28;20066;-94
2023/09/24 06:32:12;;;;;;;8.73;2.42;;;;;;;;;;5074757;28;20430;-94
2023/09/24 06:34:37;;;;;;;4.95;2.17;;;;;;;;;;5074531;28;20020;-94
2023/09/24 06:37:03;;;;;;;4.78;2.03;;;;;;;;;;5075261;28;20024;-94
2023/09/24 06:40:06;;;;;;;4.85;2.13;;;;;;;;;;5062899;28;20028;-95
2023/09/24 06:42:32;;;;;;;5.28;1.90;;;;;;;;;;5063538;28;20400;-96
2023/09/24 06:44:57;;;;;;;6.03;1.92;;;;;;;;;;5072790;28;20020;-96
2023/09/24 06:47:22;;;;;;;2.47;1.70;;;;;;;;;;5073801;28;20025;-95
2023/09/24 06:49:49;;;;;;;7.65;2.25;;;;;;;;;;5061209;28;20032;-95
2023/09/24 06:52:14;;;;;;;7.03;1.83;;;;;;;;;;5068016;28;20024;-95
2023/09/24 06:54:40;;;;;;;5.78;1.80;;;;;;;;;;5066292;28;20017;-96
2023/09/24 06:57:05;;;;;;;3.85;1.75;;;;;;;;;;5074540;28;20476;-96
2023/09/24 06:59:30;;;;;;;3.28;1.65;;;;;;;;;;5061320;28;20028;-96
2023/09/24 07:01:56;;;;;;;3.08;1.70;;;;;;;;;;5075407;28;20099;-96
2023/09/24 07:04:21;;;;;;;6.20;1.92;;;;;;;;;;5057912;28;20052;-96
2023/09/24 07:06:46;;;;;;;3.45;1.65;;;;;;;;;;5065140;28;20090;-96
2023/09/24 07:09:12;;;;;;;9.27;1.60;;;;;;;;;;5074413;28;20012;-95
2023/09/24 07:11:38;;;;;;;2.72;1.33;;;;;;;;;;5055317;28;20103;-96
2023/09/24 07:14:04;;;;;;;4.55;1.55;;;;;;;;;;5056092;28;20050;-95
2023/09/24 07:16:29;;;;;;;3.75;1.50;;;;;;;;;;5074577;28;20051;-96
2023/09/24 07:18:56;;;;;;;3.85;1.83;;;;;;;;;;5066528;28;20017;-96
2023/09/24 07:21:24;;;;;;;3.35;1.67;;;;;;;;;;5075088;28;20086;-96
2023/09/24 07:23:51;;;;;;;3.80;1.52;;;;;;;;;;5075415;28;20020;-96
2023/09/24 07:26:17;;;;;;;3.15;1.35;;;;;;;;;;5075704;28;20044;-95
2023/09/24 07:28:43;;;;;;;5.15;1.60;;;;;;;;;;5074665;28;20082;-96
2023/09/24 07:31:15;;;;;;;5.72;1.70;;;;;;;;;;5060981;28;20502;-96
2023/09/24 07:33:44;;;;;;;3.78;1.48;;;;;;;;;;5061558;28;20017;-96
2023/09/24 07:36:10;;;;;;;3.85;1.30;;;;;;;;;;5074050;28;20017;-96
2023/09/24 07:38:38;;;;;;;3.90;1.40;;;;;;;;;;5074494;28;20566;-96
2023/09/24 07:41:03;;;;;;;3.72;1.38;;;;;;;;;;5074417;28;20035;-95
2023/09/24 07:43:30;;;;;;;2.40;1.20;;;;;;;;;;5070940;28;20064;-96
2023/09/24 07:45:55;;;;;;;3.35;1.40;;;;;;;;;;5063408;28;20119;-95
2023/09/24 07:48:20;;;;;;;4.55;1.20;;;;;;;;;;5066726;28;20078;-96
2023/09/24 07:50:50;;;;;;;4.70;1.58;;;;;;;;;;5069006;28;20032;-96
2023/09/24 07:53:18;;;;;;;2.97;1.50;;;;;;;;;;5066174;28;20028;-96
2023/09/24 07:55:43;;;;;;;4.80;1.70;;;;;;;;;;5066365;28;20012;-96
2023/09/24 07:58:08;;;;;;;3.97;1.33;;;;;;;;;;5062959;28;20032;-96
2023/09/24 08:00:34;;;;;;;3.00;1.67;;;;;;;;;;5063593;28;20047;-96
2023/09/24 08:03:00;;;;;;;4.97;1.30;;;;;;;;;;5071110;28;20098;-96
2023/09/24 08:05:25;;;;;;;5.35;1.20;;;;;;;;;;5070355;28;20024;-96
2023/09/24 08:07:50;;;;;;;5.00;1.58;;;;;;;;;;5072344;28;20070;-96
2023/09/24 08:10:16;;;;;;;5.10;1.25;;;;;;;;;;5072534;28;20031;-96
2023/09/24 08:12:41;;;;;;;2.53;1.17;;;;;;;;;;5072779;28;20398;-95
2023/09/24 08:15:07;;;;;;;2.78;1.10;;;;;;;;;;5070895;28;20028;-96
2023/09/24 08:17:32;;;;;;;2.85;1.05;;;;;;;;;;5066230;28;20559;-96
2023/09/24 08:20:00;;;;;;;3.85;1.08;;;;;;;;;;5058361;28;20100;-95
2023/09/24 08:22:26;;;;;;;4.28;1.05;;;;;;;;;;5073505;28;20043;-96
2023/09/24 08:24:51;;;;;;;4.15;1.35;;;;;;;;;;5074254;28;20048;-96
2023/09/24 08:27:19;;;;;;;3.28;1.27;;;;;;;;;;5074219;28;20023;-96
2023/09/24 08:29:45;;;;;;;9.35;1.42;;;;;;;;;;5074712;28;20024;-96
2023/09/24 08:32:10;;;;;;;3.72;1.00;;;;;;;;;;5073669;28;20017;-95
2023/09/24 08:34:35;;;;;;;3.88;1.30;;;;;;;;;;5067733;28;20024;-96
2023/09/24 08:37:02;;;;;;;4.85;1.20;;;;;;;;;;5073555;28;20503;-96
2023/09/24 08:39:27;;;;;;;5.28;1.17;;;;;;;;;;5074659;28;20028;-96
2023/09/24 08:41:53;;;;;;;5.10;1.08;;;;;;;;;;5072024;28;20035;-96
2023/09/24 08:44:22;;;;;;;5.05;1.15;;;;;;;;;;5073656;28;20082;-96
2023/09/24 08:46:48;;;;;;;6.80;1.48;;;;;;;;;;5073062;28;20029;-96
2023/09/24 08:49:14;;;;;;;3.97;0.80;;;;;;;;;;5066718;28;20060;-96
2023/09/24 08:51:39;;;;;;;3.45;1.23;;;;;;;;;;5062848;28;20483;-96
2023/09/24 08:54:05;;;;;;;4.68;1.30;;;;;;;;;;5073436;28;20009;-96
2023/09/24 08:56:30;;;;;;;8.15;1.58;;;;;;;;;;5072424;28;20383;-96
2023/09/24 08:58:56;;;;;;;4.03;1.33;;;;;;;;;;5071953;28;20398;-96
2023/09/24 09:01:21;;;;;;;4.38;1.35;;;;;;;;;;5072520;28;20035;-95
2023/09/24 09:03:47;;;;;;;3.63;0.85;;;;;;;;;;5075705;28;20467;-95
2023/09/24 09:06:29;;;;;;;5.05;1.05;;;;;;;;;;5071931;28;20120;-96
2023/09/24 09:08:54;;;;;;;4.50;1.13;;;;;;;;;;5072385;28;20036;-96
2023/09/24 09:11:19;;;;;;;3.03;1.08;;;;;;;;;;5069015;28;20156;-96
2023/09/24 09:13:47;;;;;;;2.30;1.10;;;;;;;;;;5053301;28;20052;-95
2023/09/24 09:16:14;;;;;;;2.85;1.02;;;;;;;;;;5068589;28;20025;-95
2023/09/24 09:18:40;;;;;;;6.57;1.23;;;;;;;;;;5072080;28;20478;-95
2023/09/24 09:21:05;;;;;;;5.45;1.00;;;;;;;;;;5071535;28;20040;-96
2023/09/24 09:23:31;;;;;;;1.50;0.80;;;;;;;;;;5072262;28;20028;-96
2023/09/24 09:25:56;;;;;;;3.53;0.82;;;;;;;;;;5072383;28;20021;-96
2023/09/24 09:28:23;;;;;;;7.88;0.88;;;;;;;;;;5071766;28;20478;-96
2023/09/24 09:30:57;;;;;;;7.18;1.10;;;;;;;;;;5072092;28;20020;-95
2023/09/24 09:33:30;;;;;;;2.25;0.70;;;;;;;;;;5070546;28;20025;-96
2023/09/24 09:35:57;;;;;;;5.03;0.77;;;;;;;;;;5064349;28;20043;-96
2023/09/24 09:38:29;;;;;;;1.50;0.90;;;;;;;;;;5077051;28;20071;-95
2023/09/24 09:40:55;;;;;;;3.28;0.88;;;;;;;;;;5078802;28;20051;-94
2023/09/24 09:43:22;;;;;;;3.63;1.10;;;;;;;;;;5078281;28;20036;-95
2023/09/24 09:45:48;;;;;;;2.92;0.82;;;;;;;;;;5078458;28;20016;-95
2023/09/24 09:48:15;;;;;;;2.55;1.00;;;;;;;;;;5075302;28;20114;-96
2023/09/24 09:50:47;;;;;;;2.65;0.80;;;;;;;;;;5062014;28;20095;-95
2023/09/24 09:53:17;;;;;;;8.80;0.70;;;;;;;;;;5071418;28;20033;-95
2023/09/24 09:55:43;;;;;;;3.63;1.00;;;;;;;;;;5059589;28;20491;-95
2023/09/24 09:58:12;;;;;;;5.80;0.95;;;;;;;;;;5063699;28;20020;-95
2023/09/24 10:00:38;;;;;;;6.32;1.15;;;;;;;;;;5061918;28;20009;-95
2023/09/24 10:03:04;;;;;;;4.78;0.90;;;;;;;;;;5074698;28;20016;-95
2023/09/24 10:05:31;;;;;;;7.57;0.88;;;;;;;;;;5062455;28;20406;-95
2023/09/24 10:07:56;;;;;;;1.17;0.50;;;;;;;;;;5062931;28;20021;-95
2023/09/24 10:10:28;;;;;;;2.90;0.80;;;;;;;;;;5072583;28;20495;-95
2023/09/24 10:12:53;;;;;;;3.78;0.70;;;;;;;;;;5074629;28;20025;-96
2023/09/24 10:15:27;;;;;;;1.52;0.77;;;;;;;;;;5068310;28;20499;-95
2023/09/24 10:18:11;;;;;;;3.53;0.88;;;;;;;;;;5062686;28;20027;-95
2023/09/24 10:20:48;;;;;;;3.47;0.75;;;;;;;;;;5055518;28;20047;-95
2023/09/24 10:23:29;;;;;;;2.10;0.80;;;;;;;;;;5074044;28;20027;-96
2023/09/24 10:25:59;;;;;;;3.03;0.82;;;;;;;;;;5064137;28;20017;-94
2023/09/24 10:28:45;;;;;;;2.65;0.90;;;;;;;;;;5068443;28;20024;-95
2023/09/24 10:31:11;;;;;;;1.17;0.70;;;;;;;;;;5064248;28;20116;-95
2023/09/24 10:33:52;;;;;;;2.10;0.90;;;;;;;;;;5075222;28;20051;-94
2023/09/24 10:36:22;;;;;;;5.13;1.00;;;;;;;;;;5074756;28;20055;-96
2023/09/24 10:39:02;;;;;;;4.45;1.17;;;;;;;;;;5069729;28;20024;-95
2023/09/24 10:41:28;;;;;;;3.40;0.77;;;;;;;;;;5066686;28;20024;-95
2023/09/24 10:44:12;;;;;;;1.00;0.60;;;;;;;;;;5072274;28;20027;-95
2023/09/24 10:46:37;;;;;;;6.75;1.35;;;;;;;;;;5066587;28;20379;-94
2023/09/24 10:49:03;;;;;;;4.85;0.68;;;;;;;;;;5074608;28;20028;-95
2023/09/24 10:51:28;;;;;;;5.25;1.13;;;;;;;;;;5066762;28;20029;-95
2023/09/24 10:54:14;;;;;;;3.58;0.98;;;;;;;;;;5071567;28;20013;-94
2023/09/24 10:56:40;;;;;;;2.90;0.98;;;;;;;;;;5072446;28;20052;-94
2023/09/24 10:59:05;;;;;;;2.13;1.20;;;;;;;;;;5074325;28;20080;-94
2023/09/24 11:01:31;;;;;;;5.80;1.90;;;;;;;;;;5069245;28;20507;-94
2023/09/24 11:03:56;;;;;;;1.45;0.60;;;;;;;;;;5072086;28;20107;-94
2023/09/24 11:06:34;;;;;;;1.85;0.70;;;;;;;;;;5069553;28;20476;-94
2023/09/24 11:09:18;;;;;;;4.70;0.90;;;;;;;;;;5065302;28;20040;-93
2023/09/24 11:11:44;;;;;;;2.25;0.75;;;;;;;;;;5073735;28;20024;-94
2023/09/24 11:14:17;;;;;;;1.95;0.68;;;;;;;;;;5069716;28;20121;-94
2023/09/24 11:16:42;;;;;;;3.05;1.20;;;;;;;;;;5070177;28;20034;-93
2023/09/24 11:19:07;;;;;;;1.73;0.65;;;;;;;;;;5073405;28;20012;-94
2023/09/24 11:21:33;;;;;;;1.92;0.85;;;;;;;;;;5073619;28;20376;-94
2023/09/24 11:23:58;;;;;;;1.23;0.65;;;;;;;;;;5072357;28;20480;-93
2023/09/24 11:26:27;;;;;;;2.50;0.70;;;;;;;;;;5073170;28;20016;-93
2023/09/24 11:28:55;;;;;;;4.07;0.75;;;;;;;;;;5073930;28;20039;-93
2023/09/24 11:31:26;;;;;;;2.72;0.45;;;;;;;;;;5073225;28;20025;-94
2023/09/24 11:33:58;;;;;;;1.70;0.70;;;;;;;;;;5070074;28;20478;-94
2023/09/24 11:36:27;;;;;;;1.88;0.57;;;;;;;;;;5073333;28;20016;-94
2023/09/24 11:39:00;;;;;;;2.10;0.70;;;;;;;;;;5073025;28;20024;-93
2023/09/24 11:41:25;;;;;;;2.72;0.70;;;;;;;;;;5074129;28;20012;-92
2023/09/24 11:43:55;;;;;;;2.28;0.77;;;;;;;;;;5065184;28;20032;-93
2023/09/24 11:46:28;;;;;;;2.75;0.63;;;;;;;;;;5057192;28;20093;-93
2023/09/24 11:48:55;;;;;;;3.20;0.82;;;;;;;;;;5052885;28;20106;-92
2023/09/24 11:51:21;;;;;;;3.38;0.95;;;;;;;;;;5062113;28;20027;-92
2023/09/24 11:53:49;;;;;;;2.85;0.60;;;;;;;;;;5066079;28;20171;-93
2023/09/24 11:56:14;;;;;;;1.85;0.60;;;;;;;;;;5066351;28;20445;-92
2023/09/24 11:58:40;;;;;;;2.38;0.98;;;;;;;;;;5068261;28;20089;-92
2023/09/24 12:01:09;;;;;;;1.63;0.70;;;;;;;;;;5073189;28;20020;-93
2023/09/24 12:03:34;;;;;;;4.47;0.70;;;;;;;;;;5073828;28;20017;-93
2023/09/24 12:05:59;;;;;;;4.00;0.73;;;;;;;;;;5070354;28;20493;-93
2023/09/24 12:08:25;;;;;;;2.70;0.70;;;;;;;;;;5054459;28;20492;-93
2023/09/24 12:10:51;;;;;;;1.30;0.45;;;;;;;;;;5068045;28;20016;-93
2023/09/24 12:13:18;;;;;;;1.90;0.63;;;;;;;;;;5072293;28;20428;-94
2023/09/24 12:15:45;;;;;;;2.53;0.80;;;;;;;;;;5059977;28;20029;-93
2023/09/24 12:18:11;;;;;;;3.15;0.70;;;;;;;;;;5072193;28;20025;-93
2023/09/24 12:20:37;;;;;;;1.92;0.90;;;;;;;;;;5072397;28;20035;-94
2023/09/24 12:23:07;;;;;;;4.32;1.02;;;;;;;;;;5068578;28;20028;-93
2023/09/24 12:25:35;;;;;;;2.50;0.70;;;;;;;;;;5072614;28;20050;-92
2023/09/24 12:28:05;;;;;;;1.98;0.70;;;;;;;;;;5072024;28;20533;-94
2023/09/24 12:30:31;;;;;;;1.38;0.60;;;;;;;;;;5072349;28;20035;-94
2023/09/24 12:32:56;;;;;;;1.40;0.57;;;;;;;;;;5059170;28;20107;-93
2023/09/24 12:35:23;;;;;;;1.60;0.60;;;;;;;;;;5062024;28;20078;-94
2023/09/24 12:37:49;;;;;;;6.28;1.20;;;;;;;;;;5058075;28;20361;-93
2023/09/24 12:40:14;;;;;;;3.75;0.90;;;;;;;;;;5071930;28;20020;-92
2023/09/24 12:42:40;;;;;;;3.25;0.70;;;;;;;;;;5070560;28;20024;-94
2023/09/24 12:45:07;;;;;;;1.10;0.50;;;;;;;;;;5062047;28;20032;-92
2023/09/24 12:47:33;;;;;;;4.35;0.82;;;;;;;;;;5068265;28;20434;-93
2023/09/24 12:50:03;;;;;;;1.25;0.68;;;;;;;;;;5069917;28;20117;-93
2023/09/24 12:52:33;;;;;;;2.28;0.50;;;;;;;;;;5053793;28;20166;-93
2023/09/24 12:54:59;;;;;;;1.58;0.80;;;;;;;;;;5072133;28;20479;-94
2023/09/24 12:57:24;;;;;;;2.63;0.70;;;;;;;;;;5072064;28;20021;-93
2023/09/24 12:59:49;;;;;;;1.77;0.60;;;;;;;;;;5057594;28;20108;-94
2023/09/24 13:02:17;;;;;;;3.90;1.10;;;;;;;;;;5058842;28;20187;-93
2023/09/24 13:04:44;;;;;;;3.65;0.90;;;;;;;;;;5059464;28;20397;-93
2023/09/24 13:07:13;;;;;;;2.20;0.85;;;;;;;;;;5071695;28;20115;-92
2023/09/24 13:09:38;;;;;;;1.98;0.65;;;;;;;;;;5062039;28;20025;-93
2023/09/24 13:12:04;;;;;;;3.10;0.70;;;;;;;;;;5073676;28;20032;-94
2023/09/24 13:14:30;;;;;;;3.30;0.75;;;;;;;;;;5066769;28;20045;-93
2023/09/24 13:16:56;;;;;;;2.67;0.65;;;;;;;;;;5071815;28;20392;-93
2023/09/24 13:19:21;;;;;;;1.50;0.60;;;;;;;;;;5075855;28;20161;-93
2023/09/24 13:21:46;;;;;;;1.45;0.60;;;;;;;;;;5067832;28;20033;-94
2023/09/24 13:24:13;;;;;;;2.08;0.73;;;;;;;;;;5074048;28;20086;-94
2023/09/24 13:26:39;;;;;;;2.10;0.70;;;;;;;;;;5056026;28;20033;-93
2023/09/24 13:29:07;;;;;;;3.33;0.82;;;;;;;;;;5069636;28;20385;-94
2023/09/24 13:31:33;;;;;;;1.92;0.60;;;;;;;;;;5061649;28;20027;-94
2023/09/24 13:34:04;;;;;;;1.38;0.60;;;;;;;;;;5075627;28;20115;-92
2023/09/24 13:36:32;;;;;;;3.80;1.00;;;;;;;;;;5075410;28;20028;-94
2023/09/24 13:39:05;;;;;;;1.98;0.60;;;;;;;;;;5075429;28;20020;-93
2023/09/24 13:41:30;;;;;;;4.60;0.90;;;;;;;;;;5075553;28;20028;-93
2023/09/24 13:43:56;;;;;;;2.08;0.70;;;;;;;;;;5064942;28;20520;-94
2023/09/24 13:46:22;;;;;;;5.20;0.80;;;;;;;;;;5071441;28;20025;-94
2023/09/24 13:48:47;;;;;;;1.33;0.47;;;;;;;;;;5066911;28;20037;-94
2023/09/24 13:51:13;;;;;;;3.25;0.77;;;;;;;;;;5069106;28;20116;-94
2023/09/24 13:53:38;;;;;;;2.35;0.73;;;;;;;;;;5074585;28;20012;-93
2023/09/24 13:56:09;;;;;;;1.70;0.70;;;;;;;;;;5075667;28;20055;-94
2023/09/24 13:58:34;;;;;;;3.13;0.85;;;;;;;;;;5061064;28;20086;-94
2023/09/24 14:01:00;;;;;;;2.53;0.77;;;;;;;;;;5064685;28;20099;-93
2023/09/24 14:03:26;;;;;;;3.88;0.82;;;;;;;;;;5071153;28;20031;-93
2023/09/24 14:06:01;;;;;;;2.85;0.73;;;;;;;;;;5076266;28;20083;-94
2023/09/24 14:14:05;;;;;;;1.35;0.70;;;;;;;;;;5069435;28;20463;-93
2023/09/24 14:16:31;;;;;;;2.53;0.90;;;;;;;;;;5067309;28;20017;-94
2023/09/24 14:18:56;;;;;;;2.53;0.70;;;;;;;;;;5068294;28;20025;-93
2023/09/24 14:21:21;;;;;;;2.47;0.80;;;;;;;;;;5074347;28;20033;-94
2023/09/24 14:23:47;;;;;;;4.75;0.98;;;;;;;;;;5074438;28;20031;-93
2023/09/24 14:26:12;;;;;;;0.63;0.40;;;;;;;;;;5076072;28;20028;-94
2023/09/24 14:28:38;;;;;;;1.55;0.52;;;;;;;;;;5074514;28;20050;-94
2023/09/24 14:31:03;;;;;;;1.65;0.73;;;;;;;;;;5058292;28;20060;-93
2023/09/24 14:33:29;;;;;;;3.20;0.77;;;;;;;;;;5068649;28;20024;-93
2023/09/24 14:35:58;;;;;;;2.70;0.98;;;;;;;;;;5074854;28;20021;-93
2023/09/24 14:38:24;;;;;;;1.77;0.60;;;;;;;;;;5074533;28;20180;-94
2023/09/24 14:40:49;;;;;;;2.25;0.80;;;;;;;;;;5074676;28;20055;-95
2023/09/24 14:43:15;;;;;;;3.25;0.57;;;;;;;;;;5067667;28;20564;-95
2023/09/24 14:45:40;;;;;;;2.38;0.98;;;;;;;;;;5074456;28;20565;-93
2023/09/24 14:48:08;;;;;;;2.80;0.68;;;;;;;;;;5074010;28;20028;-93